createdAt,value
2022-09-10T00:00:59.668Z,99720.28
2022-09-10T00:03:26.677Z,99719.25
2022-09-10T00:05:53.634Z,99721.28
2022-09-10T00:08:20.689Z,99718.69
2022-09-10T00:10:49.913Z,99720.44
2022-09-10T00:13:19.251Z,99716.56
2022-09-10T00:15:53.697Z,99710.63
2022-09-10T00:18:22.407Z,99711.97
2022-09-10T00:20:51.473Z,99709.66
2022-09-10T00:23:23.625Z,99708.16
2022-09-10T00:25:52.054Z,99708.72
2022-09-10T00:28:19.080Z,99698.06
2022-09-10T00:30:49.420Z,99702.13
2022-09-10T00:33:17.486Z,99695.75
2022-09-10T00:35:44.446Z,99695.94
2022-09-10T00:38:12.546Z,99703.72
2022-09-10T00:40:39.736Z,99707.13
2022-09-10T00:43:20.293Z,99701.28
2022-09-10T00:45:54.676Z,99704.16
2022-09-10T00:48:31.234Z,99702.13
2022-09-10T00:51:00.020Z,99699.25
2022-09-10T00:53:28.073Z,99707.50
2022-09-10T00:55:58.637Z,99713.53
2022-09-10T00:58:26.074Z,99710.75
2022-09-10T01:00:55.175Z,99708.78
2022-09-10T01:03:25.384Z,99701.66
2022-09-10T01:06:22.337Z,99702.84
2022-09-10T01:08:49.183Z,99705.75
2022-09-10T01:11:34.571Z,99700.63
2022-09-10T01:14:13.300Z,99705.34
2022-09-10T01:16:42.627Z,99702.97
2022-09-10T01:19:37.146Z,99704.06
2022-09-10T01:22:18.821Z,99701.75
2022-09-10T01:24:56.888Z,99704.25
2022-09-10T01:27:47.526Z,99706.41
2022-09-10T01:30:35.040Z,99710.88
2022-09-10T01:33:13.267Z,99705.09
2022-09-10T01:35:46.524Z,99700.81
2022-09-10T01:38:17.110Z,99698.97
2022-09-10T01:40:44.127Z,99694.38
2022-09-10T01:48:57.115Z,99694.63
2022-09-10T01:51:43.044Z,99696.09
2022-09-10T01:54:37.124Z,99697.00
2022-09-10T01:57:19.374Z,99702.22
2022-09-10T02:04:14.560Z,99688.97
2022-09-10T02:06:44.713Z,99688.81
2022-09-10T02:09:13.616Z,99698.97
2022-09-10T02:11:52.368Z,99692.31
2022-09-10T02:14:50.832Z,99686.69
2022-09-10T02:17:35.388Z,99695.34
2022-09-10T02:20:04.925Z,99694.19
2022-09-10T02:22:36.208Z,99697.59
2022-09-10T02:25:04.056Z,99695.19
2022-09-10T02:27:30.883Z,99700.25
2022-09-10T02:29:57.779Z,99696.88
2022-09-10T02:32:25.541Z,99700.09
2022-09-10T02:34:52.262Z,99696.88
2022-09-10T02:37:20.118Z,99696.66
2022-09-10T02:40:18.953Z,99690.91
2022-09-10T02:42:46.739Z,99688.03
2022-09-10T02:45:17.642Z,99678.50
2022-09-10T02:47:44.311Z,99688.88
2022-09-10T02:50:11.631Z,99684.03
2022-09-10T02:52:39.309Z,99682.84
2022-09-10T02:55:08.415Z,99684.03
2022-09-10T02:57:35.667Z,99683.59
2022-09-10T03:04:35.176Z,99686.66
2022-09-10T03:07:02.690Z,99684.78
2022-09-10T03:09:29.665Z,99681.56
2022-09-10T03:11:56.377Z,99679.72
2022-09-10T03:14:24.591Z,99677.69
2022-09-10T03:16:51.327Z,99676.00
2022-09-10T03:19:18.231Z,99664.44
2022-09-10T03:21:47.642Z,99664.63
2022-09-10T03:24:15.592Z,99668.22
2022-09-10T03:26:44.431Z,99668.59
2022-09-10T03:29:11.881Z,99665.84
2022-09-10T03:31:40.692Z,99663.78
2022-09-10T03:35:00.255Z,99659.50
2022-09-10T03:41:48.448Z,99667.66
2022-09-10T03:44:17.039Z,99662.75
2022-09-10T03:46:43.697Z,99666.09
2022-09-10T03:49:10.442Z,99666.19
2022-09-10T03:51:37.885Z,99671.91
2022-09-10T03:58:40.748Z,99678.31
2022-09-10T04:01:09.136Z,99676.81
2022-09-10T04:03:38.705Z,99672.47
2022-09-10T04:06:05.820Z,99679.59
2022-09-10T04:08:33.890Z,99674.06
2022-09-10T04:15:08.264Z,99666.19
2022-09-10T04:17:34.962Z,99672.56
2022-09-10T04:20:01.801Z,99673.41
2022-09-10T04:22:28.534Z,99675.53
2022-09-10T04:25:52.461Z,99683.09
2022-09-10T04:28:19.375Z,99679.25
2022-09-10T04:30:48.297Z,99683.13
2022-09-10T04:33:15.238Z,99680.91
2022-09-10T04:35:43.401Z,99692.47
2022-09-10T04:38:11.757Z,99685.44
2022-09-10T04:40:39.943Z,99686.44
2022-09-10T04:43:08.705Z,99687.03
2022-09-10T04:45:39.277Z,99692.19
2022-09-10T04:48:07.234Z,99691.53
2022-09-10T04:50:35.619Z,99696.56
2022-09-10T04:53:15.139Z,99698.88
2022-09-10T04:55:44.492Z,99694.50
2022-09-10T04:58:11.706Z,99698.38
2022-09-10T05:00:40.099Z,99696.19
2022-09-10T05:03:31.892Z,99711.84
2022-09-10T05:05:59.121Z,99705.81
2022-09-10T05:08:25.811Z,99705.97
2022-09-10T05:10:56.637Z,99706.44
2022-09-10T05:13:24.160Z,99708.66
2022-09-10T05:15:50.953Z,99700.06
2022-09-10T05:18:18.060Z,99710.31
2022-09-10T05:21:35.988Z,99710.47
2022-09-10T05:24:02.863Z,99706.44
2022-09-10T05:26:29.657Z,99714.47
2022-09-10T05:28:59.642Z,99705.22
2022-09-10T05:31:27.739Z,99709.97
2022-09-10T05:33:55.574Z,99721.03
2022-09-10T05:36:22.602Z,99714.47
2022-09-10T05:38:49.373Z,99716.72
2022-09-10T05:41:16.912Z,99726.41
2022-09-10T05:43:46.898Z,99723.56
2022-09-10T05:46:14.295Z,99724.03
2022-09-10T05:48:49.679Z,99722.72
2022-09-10T05:51:27.831Z,99722.81
2022-09-10T05:53:56.439Z,99729.88
2022-09-10T05:56:25.641Z,99714.44
2022-09-10T05:58:52.355Z,99720.78
2022-09-10T06:01:19.217Z,99719.06
2022-09-10T06:03:46.996Z,99720.25
2022-09-10T06:06:15.732Z,99723.09
2022-09-10T06:08:53.234Z,99720.13
2022-09-10T06:11:27.769Z,99719.50
2022-09-10T06:13:55.305Z,99721.56
2022-09-10T06:16:22.068Z,99728.75
2022-09-10T06:18:49.105Z,99735.16
2022-09-10T06:21:20.324Z,99723.22
2022-09-10T06:23:53.613Z,99735.53
2022-09-10T06:26:21.672Z,99740.97
2022-09-10T06:28:52.753Z,99747.38
2022-09-10T06:31:19.943Z,99740.44
2022-09-10T06:33:48.929Z,99735.28
2022-09-10T06:36:20.332Z,99742.19
2022-09-10T06:38:49.496Z,99743.03
2022-09-10T06:41:17.122Z,99727.41
2022-09-10T06:43:50.829Z,99748.03
2022-09-10T06:47:19.648Z,99749.25
2022-09-10T06:49:23.554Z,99736.66
2022-09-10T06:51:50.673Z,99746.84
2022-09-10T06:54:18.832Z,99744.16
2022-09-10T06:56:49.116Z,99744.31
2022-09-10T06:59:18.328Z,99739.25
2022-09-10T07:01:48.123Z,99746.97
2022-09-10T07:04:15.912Z,99755.00
2022-09-10T07:06:43.194Z,99747.28
2022-09-10T07:09:13.543Z,99760.38
2022-09-10T07:11:49.050Z,99757.03
2022-09-10T07:14:17.965Z,99753.59
2022-09-10T07:16:46.222Z,99758.31
2022-09-10T07:19:14.924Z,99754.44
2022-09-10T07:21:45.290Z,99762.03
2022-09-10T07:24:15.791Z,99769.81
2022-09-10T07:27:04.684Z,99767.28
2022-09-10T07:29:35.178Z,99767.41
2022-09-10T07:32:04.340Z,99765.19
2022-09-10T07:34:31.878Z,99772.03
2022-09-10T07:37:00.421Z,99774.53
2022-09-10T07:39:28.219Z,99779.91
2022-09-10T07:41:56.647Z,99779.25
2022-09-10T07:44:27.129Z,99784.25
2022-09-10T07:46:57.487Z,99785.94
2022-09-10T07:49:27.753Z,99791.97
2022-09-10T07:51:59.840Z,99785.19
2022-09-10T07:54:31.306Z,99787.44
2022-09-10T07:56:59.070Z,99785.75
2022-09-10T07:59:32.047Z,99787.16
2022-09-10T08:02:58.188Z,99785.84
2022-09-10T08:05:28.770Z,99792.53
2022-09-10T08:07:57.095Z,99789.25
2022-09-10T08:10:28.222Z,99784.16
2022-09-10T08:12:58.798Z,99786.09
2022-09-10T08:15:26.780Z,99793.59
2022-09-10T08:17:55.610Z,99786.81
2022-09-10T08:20:25.055Z,99792.19
2022-09-10T08:22:52.121Z,99795.38
2022-09-10T08:25:20.877Z,99793.22
2022-09-10T08:27:47.695Z,99791.38
2022-09-10T08:30:15.002Z,99798.44
2022-09-10T08:32:42.169Z,99798.59
2022-09-10T08:35:09.340Z,99801.72
2022-09-10T08:37:38.058Z,99806.38
2022-09-10T08:40:13.143Z,99809.91
2022-09-10T08:42:50.092Z,99802.88
2022-09-10T08:45:23.278Z,99806.19
2022-09-10T08:47:58.593Z,99799.59
2022-09-10T08:50:46.509Z,99807.09
2022-09-10T08:53:25.963Z,99801.56
2022-09-10T08:56:09.507Z,99806.28
2022-09-10T08:58:48.415Z,99810.28
2022-09-10T09:01:21.745Z,99813.25
2022-09-10T09:03:55.682Z,99813.78
2022-09-10T09:07:15.069Z,99814.72
2022-09-10T09:09:44.464Z,99819.81
2022-09-10T09:12:54.160Z,99813.91
2022-09-10T09:15:27.263Z,99822.69
2022-09-10T09:19:02.033Z,99811.00
2022-09-10T09:21:29.687Z,99820.75
2022-09-10T09:24:12.732Z,99825.38
2022-09-10T09:26:47.287Z,99815.72
2022-09-10T09:29:25.539Z,99818.00
2022-09-10T09:31:58.154Z,99814.38
2022-09-10T09:34:39.914Z,99825.91
2022-09-10T09:37:15.097Z,99816.66
2022-09-10T09:39:46.084Z,99815.03
2022-09-10T09:42:23.120Z,99814.97
2022-09-10T09:44:56.413Z,99809.22
2022-09-10T09:47:23.818Z,99817.66
2022-09-10T09:49:51.934Z,99823.88
2022-09-10T09:52:22.503Z,99819.69
2022-09-10T09:57:42.494Z,99814.38
2022-09-10T10:00:36.335Z,99812.63
2022-09-10T10:03:24.297Z,99811.25
2022-09-10T10:05:51.077Z,99812.81
2022-09-10T10:08:42.894Z,99798.38
2022-09-10T10:11:11.483Z,99807.88
2022-09-10T10:13:41.898Z,99799.28
2022-09-10T10:16:14.325Z,99800.94
2022-09-10T10:18:42.506Z,99795.63
2022-09-10T10:21:16.058Z,99799.16
2022-09-10T10:23:43.317Z,99787.25
2022-09-10T10:26:21.910Z,99784.31
2022-09-10T10:28:50.469Z,99781.94
2022-09-10T10:31:17.846Z,99789.00
2022-09-10T10:34:23.420Z,99785.13
2022-09-10T10:37:02.864Z,99784.31
2022-09-10T10:40:03.355Z,99787.00
2022-09-10T10:42:39.400Z,99778.41
2022-09-10T10:45:08.925Z,99777.63
2022-09-10T10:47:51.390Z,99773.69
2022-09-10T10:50:26.501Z,99773.84
2022-09-10T10:53:18.161Z,99779.38
2022-09-10T10:55:57.070Z,99778.28
2022-09-10T10:58:36.622Z,99782.31
2022-09-10T11:01:21.940Z,99781.16
2022-09-10T11:04:09.861Z,99778.28
2022-09-10T11:06:43.887Z,99773.66
2022-09-10T11:09:22.061Z,99778.94
2022-09-10T11:11:58.785Z,99781.22
2022-09-10T11:14:48.801Z,99776.25
2022-09-10T11:17:55.873Z,99772.44
2022-09-10T11:20:53.206Z,99773.03
2022-09-10T11:23:34.018Z,99777.38
2022-09-10T11:26:09.142Z,99782.09
2022-09-10T11:28:43.703Z,99787.69
2022-09-10T11:31:18.295Z,99790.38
2022-09-10T11:33:55.033Z,99783.69
2022-09-10T11:36:41.953Z,99779.13
2022-09-10T11:39:24.278Z,99769.75
2022-09-10T11:41:53.688Z,99770.22
2022-09-10T11:45:09.046Z,99772.25
2022-09-10T11:47:40.389Z,99776.03
2022-09-10T11:50:46.590Z,99764.31
2022-09-10T11:53:16.765Z,99769.56
2022-09-10T11:55:57.646Z,99758.88
2022-09-10T11:58:45.626Z,99759.03
2022-09-10T12:01:26.859Z,99750.00
2022-09-10T12:04:19.466Z,99747.88
2022-09-10T12:06:55.421Z,99742.22
2022-09-10T12:09:44.217Z,99740.50
2022-09-10T12:12:40.581Z,99752.94
2022-09-10T12:15:13.098Z,99749.25
2022-09-10T12:17:41.767Z,99752.78
2022-09-10T12:20:15.922Z,99751.75
2022-09-10T12:22:47.371Z,99750.53
2022-09-10T12:25:25.422Z,99751.94
2022-09-10T12:27:53.831Z,99751.16
2022-09-10T12:30:29.182Z,99743.69
2022-09-10T12:33:00.578Z,99743.69
2022-09-10T12:35:32.744Z,99734.50
2022-09-10T12:38:40.253Z,99747.22
2022-09-10T12:41:15.629Z,99753.91
2022-09-10T12:43:42.352Z,99762.97
2022-09-10T12:46:09.163Z,99768.84
2022-09-10T12:48:39.881Z,99765.66
2022-09-10T12:51:31.847Z,99755.66
2022-09-10T12:54:04.040Z,99749.97
2022-09-10T12:57:26.226Z,99743.25
2022-09-10T13:00:01.359Z,99743.78
2022-09-10T13:02:34.120Z,99737.84
2022-09-10T13:05:05.510Z,99729.59
2022-09-10T13:07:40.184Z,99729.03
2022-09-10T13:10:25.876Z,99728.53
2022-09-10T13:12:56.789Z,99737.50
2022-09-10T13:15:26.017Z,99737.69
2022-09-10T13:17:52.633Z,99722.38
2022-09-10T13:20:22.063Z,99732.94
2022-09-10T13:23:10.252Z,99728.13
2022-09-10T13:25:42.681Z,99726.78
2022-09-10T13:28:47.828Z,99726.56
2022-09-10T13:31:21.649Z,99753.34
2022-09-10T13:33:53.899Z,99753.34
2022-09-10T13:36:41.982Z,99747.66
2022-09-10T13:39:40.598Z,99748.25
2022-09-10T13:42:19.579Z,99744.72
2022-09-10T13:45:14.426Z,99743.88
2022-09-10T13:47:47.206Z,99744.75
2022-09-10T13:50:14.639Z,99755.16
2022-09-10T13:52:44.492Z,99739.59
2022-09-10T13:55:23.110Z,99743.28
2022-09-10T13:57:52.453Z,99747.06
2022-09-10T14:00:23.689Z,99742.06
2022-09-10T14:02:55.963Z,99762.34
2022-09-10T14:05:23.459Z,99757.13
2022-09-10T14:07:51.083Z,99753.81
2022-09-10T14:10:18.496Z,99753.53
2022-09-10T14:12:45.784Z,99761.63
2022-09-10T14:15:43.247Z,99761.88
2022-09-10T14:18:10.649Z,99770.47
2022-09-10T14:20:37.522Z,99770.88
2022-09-10T14:23:07.089Z,99759.72
2022-09-10T14:25:36.185Z,99759.41
2022-09-10T14:28:26.394Z,99751.91
2022-09-10T14:31:29.925Z,99750.09
2022-09-10T14:33:59.433Z,99753.94
2022-09-10T14:36:33.401Z,99747.28
2022-09-10T14:39:06.307Z,99750.97
2022-09-10T14:41:35.057Z,99749.34
2022-09-10T14:44:23.749Z,99753.50
2022-09-10T14:47:12.678Z,99755.59
2022-09-10T14:49:46.995Z,99761.34
2022-09-10T14:52:14.621Z,99764.56
2022-09-10T14:54:41.711Z,99751.25
2022-09-10T14:57:13.890Z,99762.72
2022-09-10T14:59:44.061Z,99759.38
2022-09-10T15:02:26.640Z,99758.84
2022-09-10T15:04:53.944Z,99760.81
2022-09-10T15:07:20.641Z,99753.56
2022-09-10T15:09:47.956Z,99762.28
2022-09-10T15:12:19.912Z,99749.91
2022-09-10T15:14:46.535Z,99751.78
2022-09-10T15:17:13.874Z,99747.88
2022-09-10T15:19:40.492Z,99745.47
2022-09-10T15:22:07.487Z,99750.22
2022-09-10T15:24:52.522Z,99744.84
2022-09-10T15:27:22.403Z,99747.66
2022-09-10T15:29:49.198Z,99747.53
2022-09-10T15:32:16.138Z,99744.66
2022-09-10T15:34:43.747Z,99738.41
2022-09-10T15:37:11.020Z,99732.56
2022-09-10T15:39:37.995Z,99742.50
2022-09-10T15:42:05.887Z,99734.06
2022-09-10T15:44:33.431Z,99736.09
2022-09-10T15:47:01.210Z,99732.75
2022-09-10T15:49:28.621Z,99731.66
2022-09-10T15:51:55.470Z,99731.88
2022-09-10T15:54:24.171Z,99729.78
2022-09-10T15:56:51.194Z,99732.03
2022-09-10T15:59:17.945Z,99738.63
2022-09-10T16:01:47.664Z,99735.31
2022-09-10T16:04:15.686Z,99740.50
2022-09-10T16:06:44.392Z,99733.00
2022-09-10T16:09:13.536Z,99732.34
2022-09-10T16:11:45.274Z,99739.16
2022-09-10T16:14:15.697Z,99734.13
2022-09-10T16:16:45.670Z,99733.13
2022-09-10T16:19:13.786Z,99737.66
2022-09-10T16:21:41.962Z,99731.09
2022-09-10T16:24:09.727Z,99727.63
2022-09-10T16:26:40.040Z,99737.34
2022-09-10T16:29:17.257Z,99735.81
2022-09-10T16:31:48.008Z,99736.72
2022-09-10T16:34:17.417Z,99750.16
2022-09-10T16:36:48.636Z,99753.84
2022-09-10T16:39:18.848Z,99758.97
2022-09-10T16:41:48.586Z,99773.44
2022-09-10T16:44:17.515Z,99776.13
2022-09-10T16:46:44.731Z,99772.97
2022-09-10T16:49:15.074Z,99781.69
2022-09-10T16:51:42.794Z,99773.19
2022-09-10T16:54:10.053Z,99781.81
2022-09-10T16:56:40.085Z,99786.16
2022-09-10T16:59:09.618Z,99788.22
2022-09-10T17:01:37.231Z,99800.19
2022-09-10T17:04:04.518Z,99795.97
2022-09-10T17:06:31.629Z,99793.94
2022-09-10T17:08:59.610Z,99790.16
2022-09-10T17:11:28.200Z,99789.88
2022-09-10T17:13:56.904Z,99784.50
2022-09-10T17:16:32.543Z,99792.13
2022-09-10T17:19:07.631Z,99792.03
2022-09-10T17:21:39.621Z,99788.28
2022-09-10T17:24:08.242Z,99783.97
2022-09-10T17:26:37.030Z,99786.47
2022-09-10T17:29:15.795Z,99787.69
2022-09-10T17:31:43.102Z,99787.19
2022-09-10T17:34:14.031Z,99783.31
2022-09-10T17:36:42.221Z,99782.66
2022-09-10T17:39:08.875Z,99782.66
2022-09-10T17:41:35.607Z,99786.53
2022-09-10T17:44:02.541Z,99782.03
2022-09-10T17:46:31.048Z,99786.91
2022-09-10T17:48:58.950Z,99781.53
2022-09-10T17:51:27.911Z,99790.81
2022-09-10T17:53:56.461Z,99787.28
2022-09-10T17:56:24.699Z,99801.47
2022-09-10T17:58:57.405Z,99800.53
2022-09-10T18:01:27.482Z,99805.38
2022-09-10T18:03:54.302Z,99815.91
2022-09-10T18:06:21.561Z,99816.56
2022-09-10T18:08:48.414Z,99808.69
2022-09-10T18:11:23.989Z,99805.16
2022-09-10T18:13:52.343Z,99811.75
2022-09-10T18:16:21.824Z,99814.97
2022-09-10T18:18:53.823Z,99822.41
2022-09-10T18:26:19.169Z,99824.66
2022-09-10T18:28:56.104Z,99822.25
2022-09-10T18:31:24.350Z,99818.69
2022-09-10T18:33:56.792Z,99821.09
2022-09-10T18:36:30.280Z,99818.53
2022-09-10T18:39:47.802Z,99821.31
2022-09-10T18:42:16.566Z,99827.13
2022-09-10T18:44:47.683Z,99829.97
2022-09-10T18:47:34.027Z,99826.56
2022-09-10T18:50:02.006Z,99825.25
2022-09-10T18:52:29.202Z,99835.84
2022-09-10T18:54:55.840Z,99832.13
2022-09-10T18:57:52.074Z,99840.47
2022-09-10T19:00:18.735Z,99841.53
2022-09-10T19:02:45.524Z,99843.03
2022-09-10T19:05:12.750Z,99843.03
2022-09-10T19:07:39.654Z,99841.84
2022-09-10T19:10:07.227Z,99843.03
2022-09-10T19:12:34.145Z,99835.63
2022-09-10T19:15:27.864Z,99836.84
2022-09-10T19:17:54.619Z,99831.13
2022-09-10T19:20:21.791Z,99831.13
2022-09-10T19:22:48.523Z,99842.72
2022-09-10T19:25:15.137Z,99833.66
2022-09-10T19:27:42.199Z,99848.94
2022-09-10T19:30:09.525Z,99841.53
2022-09-10T19:32:36.195Z,99845.25
2022-09-10T19:35:02.838Z,99847.09
2022-09-10T19:37:30.335Z,99837.88
2022-09-10T19:39:57.284Z,99839.41
2022-09-10T19:42:24.401Z,99837.22
2022-09-10T19:44:51.055Z,99838.38
2022-09-10T19:47:19.528Z,99838.19
2022-09-10T19:49:48.222Z,99836.72
2022-09-10T19:52:15.280Z,99836.50
2022-09-10T19:54:41.924Z,99840.88
2022-09-10T19:57:08.563Z,99837.22
2022-09-10T19:59:35.548Z,99849.78
2022-09-10T20:02:02.264Z,99843.41
2022-09-10T20:04:29.386Z,99850.47
2022-09-10T20:06:56.002Z,99845.25
2022-09-10T20:09:22.642Z,99850.09
2022-09-10T20:11:49.367Z,99854.81
2022-09-10T20:14:15.959Z,99849.94
2022-09-10T20:16:44.308Z,99854.16
2022-09-10T20:19:13.024Z,99862.03
2022-09-10T20:21:40.377Z,99866.88
2022-09-10T20:24:07.675Z,99864.19
2022-09-10T20:26:37.812Z,99857.00
2022-09-10T20:29:07.213Z,99862.19
2022-09-10T20:31:36.034Z,99856.34
2022-09-10T20:34:05.338Z,99855.16
2022-09-10T20:36:33.396Z,99853.16
2022-09-10T20:39:00.195Z,99851.47
2022-09-10T20:41:30.657Z,99851.47
2022-09-10T20:43:58.933Z,99853.31
2022-09-10T20:46:26.986Z,99854.97
2022-09-10T20:48:54.926Z,99848.28
2022-09-10T20:51:21.586Z,99849.28
2022-09-10T20:53:48.585Z,99854.50
2022-09-10T20:56:19.232Z,99859.28
2022-09-10T20:58:47.104Z,99859.56
2022-09-10T21:01:17.298Z,99855.22
2022-09-10T21:03:44.242Z,99858.91
2022-09-10T21:06:11.902Z,99859.09
2022-09-10T21:08:40.540Z,99857.41
2022-09-10T21:11:12.405Z,99858.81
2022-09-10T21:13:46.150Z,99875.56
2022-09-10T21:16:18.431Z,99871.50
2022-09-10T21:18:54.351Z,99870.91
2022-09-10T21:21:23.705Z,99874.38
2022-09-10T21:23:51.920Z,99872.53
2022-09-10T21:26:23.235Z,99882.63
2022-09-10T21:28:52.624Z,99885.31
2022-09-10T21:31:19.340Z,99889.66
2022-09-10T21:34:40.300Z,99881.91
2022-09-10T21:37:10.164Z,99880.94
2022-09-10T21:40:04.947Z,99884.41
2022-09-10T21:42:32.628Z,99886.78
2022-09-10T21:44:59.347Z,99889.13
2022-09-10T21:47:27.061Z,99887.25
2022-09-10T21:49:53.874Z,99891.06
2022-09-10T21:52:20.669Z,99899.47
2022-09-10T21:54:48.306Z,99896.81
2022-09-10T21:57:14.985Z,99883.91
2022-09-10T21:59:41.712Z,99888.66
2022-09-10T22:02:08.605Z,99886.59
2022-09-10T22:04:35.291Z,99880.09
2022-09-10T22:07:31.857Z,99893.00
2022-09-10T22:09:58.981Z,99883.16
2022-09-10T22:12:25.623Z,99880.47
2022-09-10T22:14:52.350Z,99875.75
2022-09-10T22:17:19.534Z,99876.75
2022-09-10T22:20:11.743Z,99875.53
2022-09-10T22:22:39.284Z,99871.88
2022-09-10T22:25:06.354Z,99875.22
2022-09-10T22:27:33.058Z,99867.50
2022-09-10T22:29:59.665Z,99862.13
2022-09-10T22:32:29.662Z,99877.41
2022-09-10T22:34:56.898Z,99872.88
2022-09-10T22:37:23.711Z,99869.34
2022-09-10T22:39:50.399Z,99863.63
2022-09-10T22:42:21.079Z,99868.16
2022-09-10T22:44:48.126Z,99873.38
2022-09-10T22:47:14.707Z,99860.59
2022-09-10T22:49:41.323Z,99867.16
2022-09-10T22:52:08.102Z,99864.28
2022-09-10T22:54:34.768Z,99870.47
2022-09-10T22:57:01.403Z,99870.16
2022-09-10T22:59:28.091Z,99874.03
2022-09-10T23:01:54.840Z,99865.09
2022-09-10T23:04:50.867Z,99870.63
2022-09-10T23:07:18.185Z,99865.03
2022-09-10T23:09:44.862Z,99866.00
2022-09-10T23:12:11.727Z,99861.84
2022-09-10T23:14:39.229Z,99867.69
2022-09-10T23:17:05.876Z,99871.38
2022-09-10T23:19:32.566Z,99872.41
2022-09-10T23:21:59.358Z,99876.28
2022-09-10T23:24:26.419Z,99868.53
2022-09-10T23:26:53.745Z,99875.75
2022-09-10T23:29:23.001Z,99865.69
2022-09-10T23:31:53.239Z,99867.22
2022-09-10T23:34:20.719Z,99865.31
2022-09-10T23:36:48.210Z,99868.66
2022-09-10T23:39:20.004Z,99855.75
2022-09-10T23:41:47.634Z,99864.28
2022-09-10T23:44:14.977Z,99854.56
2022-09-10T23:46:41.687Z,99858.44
2022-09-10T23:49:08.814Z,99867.16
2022-09-10T23:51:35.695Z,99872.88
2022-09-10T23:54:02.744Z,99869.00
2022-09-10T23:56:29.627Z,99885.66
2022-09-10T23:58:59.477Z,99877.63
